Time;durP1;ratioP1;P1;durP2;ratioP2;P2;SDS_P1;SDS_P2;PMS_P1;PMS_P2;Temp;Humidity;BMP_temperature;BMP_pressure;BME280_temperature;BME280_humidity;BME280_pressure;Samples;Min_cycle;Max_cycle;Signal;HPM_P1;HPM_P2
2022/04/23 00:01:50;;;;;;;5.22;2.80;;;;;;;10.01;74.19;94011.53;5061589;28;20055;-68
2022/04/23 00:04:17;;;;;;;6.90;2.13;;;;;;;10.00;74.20;94022.97;5051869;28;20045;-68
2022/04/23 00:06:44;;;;;;;3.17;1.83;;;;;;;10.06;73.45;94040.16;5046208;28;20052;-67
2022/04/23 00:09:11;;;;;;;4.18;1.95;;;;;;;10.08;73.31;94053.75;5052492;28;20056;-68
2022/04/23 00:11:38;;;;;;;4.15;2.28;;;;;;;10.00;74.54;94046.38;5046523;28;20515;-68
2022/04/23 00:14:07;;;;;;;6.97;2.00;;;;;;;9.90;75.52;94043.66;5051576;28;20060;-68
2022/04/23 00:16:34;;;;;;;4.60;1.95;;;;;;;9.81;75.61;94039.94;5055757;28;20041;-68
2022/04/23 00:19:02;;;;;;;2.40;1.70;;;;;;;9.89;74.81;94034.31;5058001;28;20115;-67
2022/04/23 00:21:29;;;;;;;5.05;1.95;;;;;;;9.86;74.87;94034.78;5057656;28;20142;-67
2022/04/23 00:23:56;;;;;;;3.65;2.15;;;;;;;9.92;75.13;94033.78;5056575;28;20053;-67
2022/04/23 00:26:23;;;;;;;7.35;2.42;;;;;;;9.87;75.52;94031.16;5052127;28;20037;-67
2022/04/23 00:28:51;;;;;;;3.67;1.77;;;;;;;9.85;74.97;94020.19;5048848;28;20565;-67
2022/04/23 00:31:18;;;;;;;3.83;2.65;;;;;;;9.85;74.97;94051.41;5052212;28;20064;-68
2022/04/23 00:33:45;;;;;;;3.17;2.00;;;;;;;10.07;72.03;94044.34;5051668;28;20658;-68
2022/04/23 00:36:12;;;;;;;3.65;1.88;;;;;;;10.31;70.44;94036.25;5053885;28;20048;-68
2022/04/23 00:38:40;;;;;;;7.10;2.20;;;;;;;10.41;69.88;94025.16;5051163;28;20059;-68
2022/04/23 00:41:07;;;;;;;4.47;2.40;;;;;;;10.45;69.96;94027.00;5054773;28;20041;-68
2022/04/23 00:43:34;;;;;;;3.38;1.88;;;;;;;10.35;71.30;94006.09;5044843;28;20044;-68
2022/04/23 00:46:03;;;;;;;3.97;1.95;;;;;;;10.38;72.13;94016.00;5051251;28;20079;-69
2022/04/23 00:48:31;;;;;;;3.47;1.67;;;;;;;10.28;71.59;94028.91;5055007;28;20426;-68
2022/04/23 00:51:01;;;;;;;7.15;2.30;;;;;;;10.20;71.84;94018.97;5052493;28;20442;-68
2022/04/23 00:53:28;;;;;;;9.48;2.30;;;;;;;10.18;72.06;94026.25;5057634;28;20048;-68
2022/04/23 00:55:56;;;;;;;7.10;1.88;;;;;;;10.09;72.75;94024.06;5050197;28;20053;-68
2022/04/23 00:58:23;;;;;;;2.85;1.83;;;;;;;10.05;73.10;94028.22;5047458;28;20048;-68
2022/04/23 01:00:50;;;;;;;4.57;2.50;;;;;;;9.86;74.66;94019.97;5054513;28;20067;-68
2022/04/23 01:03:17;;;;;;;3.30;1.83;;;;;;;9.75;75.05;94016.47;5049994;28;20133;-68
2022/04/23 01:05:46;;;;;;;6.05;2.20;;;;;;;9.81;74.63;94021.72;5053162;28;20135;-68
2022/04/23 01:08:15;;;;;;;2.33;1.48;;;;;;;9.86;74.59;94025.16;5050141;28;20051;-68
2022/04/23 01:10:45;;;;;;;4.80;2.10;;;;;;;9.86;73.99;94012.16;5051164;28;20557;-68
2022/04/23 01:13:14;;;;;;;7.70;2.08;;;;;;;9.89;74.39;94008.28;5042930;28;20044;-68
2022/04/23 01:16:02;;;;;;;7.80;2.20;;;;;;;9.92;73.66;94023.38;5046996;28;20790;-67
2022/04/23 01:18:29;;;;;;;8.95;2.03;;;;;;;9.87;73.71;94021.53;5060129;28;20040;-68
2022/04/23 01:20:57;;;;;;;3.25;1.80;;;;;;;9.88;74.13;94037.94;5056866;28;20056;-68
2022/04/23 01:23:24;;;;;;;6.47;1.83;;;;;;;9.87;74.27;94031.16;5055752;28;20842;-68
2022/04/23 01:25:54;;;;;;;4.20;1.83;;;;;;;9.81;74.46;94047.75;5047950;28;20080;-68
2022/04/23 01:28:22;;;;;;;9.07;4.05;;;;;;;9.87;74.34;94036.38;5060843;28;20517;-68
2022/04/23 01:30:54;;;;;;;7.88;2.38;;;;;;;9.82;75.50;94031.13;5045943;28;20045;-67
2022/04/23 01:33:22;;;;;;;4.22;2.25;;;;;;;9.70;76.05;94024.22;5055856;28;20049;-67
2022/04/23 01:35:49;;;;;;;8.02;2.33;;;;;;;9.62;76.56;94044.69;5050391;28;20049;-68
2022/04/23 01:38:15;;;;;;;5.13;2.13;;;;;;;9.66;75.99;94056.94;5057613;28;20045;-69
2022/04/23 01:40:44;;;;;;;8.40;2.22;;;;;;;9.64;76.05;94048.59;5047100;28;20053;-69
2022/04/23 01:43:11;;;;;;;4.47;2.00;;;;;;;9.57;77.32;94040.22;5055801;28;20155;-69
2022/04/23 01:45:38;;;;;;;7.70;2.00;;;;;;;9.47;78.03;94045.28;5047817;28;20060;-69
2022/04/23 01:48:06;;;;;;;8.18;2.30;;;;;;;9.50;77.67;94057.81;5046265;28;20095;-69
2022/04/23 01:50:34;;;;;;;5.97;2.38;;;;;;;9.50;77.51;94063.00;5056327;28;20036;-69
2022/04/23 01:53:02;;;;;;;8.85;1.88;;;;;;;9.42;77.72;94053.81;5060462;28;20093;-69
2022/04/23 01:55:30;;;;;;;4.88;2.30;;;;;;;9.37;78.02;94054.53;5063369;28;20144;-69
2022/04/23 01:57:57;;;;;;;7.32;2.92;;;;;;;9.34;78.56;94055.00;5055834;28;20087;-69
2022/04/23 02:00:24;;;;;;;5.20;2.22;;;;;;;9.41;78.48;94059.25;5052565;28;20436;-69
2022/04/23 02:02:51;;;;;;;4.50;2.40;;;;;;;9.66;76.67;94059.53;5058764;28;20571;-69
2022/04/23 02:05:18;;;;;;;4.07;2.33;;;;;;;9.98;75.37;94051.03;5039168;28;20049;-69
2022/04/23 02:07:45;;;;;;;5.90;2.33;;;;;;;10.50;72.19;94045.25;5038888;28;20041;-69
2022/04/23 02:10:14;;;;;;;5.35;2.13;;;;;;;11.02;69.58;94050.78;5027520;28;20052;-69
2022/04/23 02:12:42;;;;;;;3.58;1.50;;;;;;;11.25;69.09;94045.19;5049185;28;20041;-68
2022/04/23 02:15:11;;;;;;;3.67;1.73;;;;;;;11.24;69.47;94048.84;5058189;28;20056;-69
2022/04/23 02:17:40;;;;;;;9.35;4.30;;;;;;;11.23;69.67;94057.69;5062194;28;20041;-68
2022/04/23 02:20:10;;;;;;;6.72;3.92;;;;;;;11.32;68.70;94065.03;5039105;28;20131;-69
2022/04/23 02:22:37;;;;;;;7.75;2.72;;;;;;;11.41;68.33;94068.72;5066331;28;20069;-69
2022/04/23 02:25:05;;;;;;;4.22;2.00;;;;;;;11.48;67.70;94069.28;5057329;28;20094;-70
2022/04/23 02:27:41;;;;;;;3.72;2.58;;;;;;;11.49;68.01;94052.59;5054781;28;20037;-69
2022/04/23 02:30:08;;;;;;;;;;;;;;;11.42;68.83;94055.44;5055663;28;20051;-69
2022/04/23 02:32:34;;;;;;;4.05;1.77;;;;;;;11.23;69.73;94056.91;5061551;28;19925;-69
2022/04/23 02:35:02;;;;;;;3.50;1.60;;;;;;;11.24;69.38;94064.47;5049721;28;20053;-69
2022/04/23 02:37:34;;;;;;;4.90;1.73;;;;;;;11.18;70.25;94065.50;5063700;28;20047;-69
2022/04/23 02:40:06;;;;;;;4.90;2.33;;;;;;;11.24;69.62;94067.09;5058915;28;20067;-69
2022/04/23 02:42:33;;;;;;;6.15;2.13;;;;;;;11.23;69.75;94062.13;5055029;28;20625;-69
2022/04/23 02:45:03;;;;;;;3.85;2.03;;;;;;;11.16;70.94;94061.56;5058526;28;20047;-69
2022/04/23 02:47:41;;;;;;;3.42;2.35;;;;;;;11.00;71.67;94063.28;5055342;28;20693;-69
2022/04/23 02:50:09;;;;;;;5.80;2.33;;;;;;;10.86;72.52;94068.94;5058593;28;20099;-69
2022/04/23 02:52:37;;;;;;;4.72;2.53;;;;;;;10.73;72.81;94069.38;5055359;28;20045;-69
2022/04/23 02:55:05;;;;;;;4.88;2.10;;;;;;;10.66;73.61;94074.00;5054190;28;20045;-69
2022/04/23 02:57:32;;;;;;;3.33;2.45;;;;;;;10.68;74.01;94074.56;5053461;28;20052;-69
2022/04/23 03:00:00;;;;;;;8.70;2.72;;;;;;;10.80;72.42;94069.94;5049496;28;20048;-69
2022/04/23 03:02:28;;;;;;;3.60;2.00;;;;;;;11.03;72.40;94073.22;5057609;28;20051;-69
2022/04/23 03:04:55;;;;;;;5.95;2.65;;;;;;;11.20;70.36;94073.84;5053097;28;20056;-69
2022/04/23 03:07:22;;;;;;;5.65;2.88;;;;;;;11.45;68.87;94074.97;5056298;28;20055;-69
2022/04/23 03:09:48;;;;;;;3.50;2.03;;;;;;;11.61;68.60;94063.59;5045600;28;20045;-69
2022/04/23 03:12:15;;;;;;;7.55;4.88;;;;;;;11.66;68.22;94061.00;5062146;28;20045;-69
2022/04/23 03:14:45;;;;;;;44.20;21.90;;;;;;;11.66;68.45;94061.00;5061308;28;20553;-69
2022/04/23 03:17:12;;;;;;;18.48;8.07;;;;;;;11.65;69.07;94064.66;5056077;28;20044;-69
2022/04/23 03:19:39;;;;;;;6.90;3.42;;;;;;;11.54;71.30;94052.63;5017737;28;20108;-69
2022/04/23 03:22:06;;;;;;;2.92;2.30;;;;;;;11.32;72.21;94054.59;5033776;28;20075;-69
2022/04/23 03:24:32;;;;;;;4.68;2.63;;;;;;;11.17;72.84;94053.50;5060151;28;20044;-69
2022/04/23 03:27:01;;;;;;;5.88;2.25;;;;;;;10.87;74.61;94044.44;5058440;28;20082;-69
2022/04/23 03:29:29;;;;;;;7.72;4.22;;;;;;;10.66;75.35;94037.53;5059175;28;20126;-69
2022/04/23 03:31:57;;;;;;;9.73;4.80;;;;;;;10.61;75.47;94045.34;5052755;28;20686;-69
2022/04/23 03:34:24;;;;;;;12.48;4.85;;;;;;;10.44;77.17;94048.06;5049991;28;20046;-69
2022/04/23 03:36:51;;;;;;;11.32;4.32;;;;;;;10.34;77.80;94046.19;5043471;28;20058;-69
2022/04/23 03:39:17;;;;;;;8.93;3.97;;;;;;;10.22;78.32;94045.53;5057125;28;20044;-70
2022/04/23 03:41:44;;;;;;;61.20;31.73;;;;;;;10.22;78.67;94063.75;5054658;28;20573;-70
2022/04/23 03:44:11;;;;;;;19.65;9.98;;;;;;;10.16;79.74;94064.75;5051625;28;20045;-69
2022/04/23 03:46:38;;;;;;;20.02;7.47;;;;;;;10.01;80.25;94066.16;5038261;28;20126;-69
2022/04/23 03:49:05;;;;;;;10.05;3.67;;;;;;;10.00;80.47;94072.38;5041681;28;20055;-69
2022/04/23 03:51:31;;;;;;;16.05;4.38;;;;;;;9.97;81.26;94067.66;5058132;28;20562;-69
2022/04/23 03:53:58;;;;;;;23.88;11.45;;;;;;;9.93;81.94;94079.59;5064686;28;20068;-69
2022/04/23 03:56:25;;;;;;;12.60;6.00;;;;;;;9.81;82.94;94081.53;5049174;28;20049;-70
2022/04/23 03:58:52;;;;;;;7.38;3.40;;;;;;;9.67;84.14;94076.72;5058751;28;20052;-70
2022/04/23 04:01:19;;;;;;;6.57;3.45;;;;;;;9.59;85.53;94082.34;5042287;28;20081;-70
2022/04/23 04:03:46;;;;;;;7.78;3.70;;;;;;;9.54;86.60;94084.88;5063193;28;20079;-70
2022/04/23 04:06:13;;;;;;;5.20;2.92;;;;;;;9.50;87.33;94089.00;5037870;28;20447;-69
2022/04/23 04:08:40;;;;;;;16.92;3.92;;;;;;;9.45;87.62;94081.91;5056270;28;20128;-70
2022/04/23 04:11:06;;;;;;;3.72;2.30;;;;;;;9.46;88.22;94093.13;5056316;28;20514;-69
2022/04/23 04:13:36;;;;;;;10.77;3.85;;;;;;;9.47;88.31;94079.06;5058595;28;20052;-69
2022/04/23 04:16:03;;;;;;;9.70;3.67;;;;;;;9.54;88.46;94087.47;5052135;28;20103;-70
2022/04/23 04:18:30;;;;;;;8.90;3.03;;;;;;;9.52;88.20;94076.53;5062011;28;20047;-69
2022/04/23 04:20:58;;;;;;;8.20;2.95;;;;;;;9.57;88.13;94084.41;5062913;28;20032;-69
2022/04/23 04:23:27;;;;;;;4.60;2.75;;;;;;;9.52;88.75;94086.94;5064037;28;20047;-69
2022/04/23 04:25:54;;;;;;;7.97;4.28;;;;;;;9.62;88.71;94087.06;5063295;28;20044;-69
2022/04/23 04:28:21;;;;;;;9.02;5.20;;;;;;;9.68;88.34;94090.50;5056575;28;20102;-70
2022/04/23 04:33:33;;;;;;;12.82;8.68;;;;;;;9.76;86.98;94087.50;5041380;28;20432;-69
2022/04/23 04:36:00;;;;;;;8.65;4.15;;;;;;;9.91;86.58;94100.66;5043111;28;20065;-69
2022/04/23 04:38:27;;;;;;;8.63;2.90;;;;;;;9.98;86.76;94105.66;5043627;28;20040;-70
2022/04/23 04:40:55;;;;;;;9.57;4.90;;;;;;;10.09;86.48;94112.53;5046475;28;20044;-69
2022/04/23 04:43:22;;;;;;;12.45;7.03;;;;;;;10.16;86.01;94111.56;5038743;28;20049;-72
2022/04/23 04:45:49;;;;;;;11.98;7.68;;;;;;;10.19;86.18;94116.28;5044448;28;20436;-69
2022/04/23 04:48:17;;;;;;;11.25;6.97;;;;;;;10.20;85.17;94112.66;5054520;28;20037;-69
2022/04/23 04:50:46;;;;;;;17.98;12.00;;;;;;;10.30;84.80;94125.78;5045831;28;20041;-69
2022/04/23 04:53:12;;;;;;;14.45;7.68;;;;;;;10.33;83.80;94127.88;5054522;28;20053;-69
2022/04/23 04:55:40;;;;;;;11.35;3.75;;;;;;;10.31;83.16;94124.75;5051284;28;20573;-69
2022/04/23 04:58:07;;;;;;;7.80;3.25;;;;;;;10.42;82.69;94131.63;5043166;28;20048;-69
2022/04/23 05:00:33;;;;;;;12.68;5.78;;;;;;;10.56;82.58;94139.03;5060903;28;20037;-69
2022/04/23 05:03:01;;;;;;;17.67;9.68;;;;;;;10.69;81.36;94141.22;5054894;28;20738;-68
2022/04/23 05:05:28;;;;;;;29.52;12.45;;;;;;;10.81;80.62;94147.06;5026936;28;20047;-69
2022/04/23 05:07:55;;;;;;;19.25;9.13;;;;;;;10.90;80.13;94148.16;5048881;28;20029;-69
2022/04/23 05:10:21;;;;;;;13.18;5.93;;;;;;;11.00;79.78;94144.06;5030132;28;20048;-69
2022/04/23 05:12:48;;;;;;;20.20;10.00;;;;;;;11.12;79.61;94139.47;5062577;28;20055;-68
2022/04/23 05:15:16;;;;;;;36.50;22.35;;;;;;;11.23;78.79;94156.72;5061105;28;20045;-69
2022/04/23 05:17:42;;;;;;;33.80;18.90;;;;;;;11.34;78.26;94162.03;5052750;28;20041;-69
2022/04/23 05:20:10;;;;;;;26.08;11.48;;;;;;;11.27;80.84;94163.03;5055515;28;20048;-69
2022/04/23 05:22:37;;;;;;;9.80;5.90;;;;;;;11.40;82.03;94176.66;5063244;28;20453;-69
2022/04/23 05:25:04;;;;;;;11.48;4.25;;;;;;;11.42;83.66;94179.81;5044797;28;20041;-69
2022/04/23 05:27:31;;;;;;;10.43;6.00;;;;;;;11.54;83.27;94196.06;5026830;28;20101;-69
2022/04/23 05:29:57;;;;;;;10.80;6.85;;;;;;;11.43;83.49;94200.41;5055319;28;20048;-69
2022/04/23 05:32:24;;;;;;;12.30;5.72;;;;;;;11.52;83.43;94200.72;5051027;28;20045;-69
2022/04/23 05:34:54;;;;;;;14.60;8.07;;;;;;;11.46;84.00;94212.16;5052327;28;20037;-69
2022/04/23 05:37:20;;;;;;;13.35;7.55;;;;;;;11.38;83.82;94204.78;5057989;28;20036;-69
2022/04/23 05:39:47;;;;;;;16.45;8.63;;;;;;;11.38;83.03;94210.81;5049806;28;20552;-69
2022/04/23 05:42:14;;;;;;;8.60;5.60;;;;;;;11.39;82.64;94211.59;5049971;28;20529;-69
2022/04/23 05:44:41;;;;;;;10.50;5.72;;;;;;;11.41;82.91;94204.31;5058221;28;20045;-69
2022/04/23 05:47:08;;;;;;;11.52;6.05;;;;;;;11.39;83.18;94207.16;5050211;28;20044;-69
2022/04/23 05:49:37;;;;;;;8.15;5.43;;;;;;;11.42;84.20;94204.06;5064121;28;20445;-69
2022/04/23 05:52:18;;;;;;;8.70;4.47;;;;;;;11.53;84.71;94202.28;5053970;28;20103;-69
2022/04/23 05:54:44;;;;;;;6.72;4.10;;;;;;;11.62;83.65;94200.78;5053462;28;20047;-69
2022/04/23 05:57:11;;;;;;;9.15;3.80;;;;;;;11.72;83.26;94199.25;5054712;28;20060;-69
2022/04/23 05:59:38;;;;;;;10.25;3.28;;;;;;;11.85;83.26;94193.59;5052874;28;20048;-69
2022/04/23 06:02:05;;;;;;;9.15;3.35;;;;;;;12.01;81.32;94197.06;5064301;28;20041;-69
2022/04/23 06:04:37;;;;;;;9.82;3.70;;;;;;;12.17;80.06;94200.53;5054475;28;20048;-68
2022/04/23 06:07:05;;;;;;;7.93;3.20;;;;;;;12.21;78.55;94191.94;5052428;28;20554;-69
2022/04/23 06:09:33;;;;;;;14.73;5.30;;;;;;;12.42;79.00;94194.59;5060094;28;20087;-68
2022/04/23 06:12:00;;;;;;;13.40;4.88;;;;;;;12.64;78.73;94194.41;5056084;28;20060;-69
2022/04/23 06:14:26;;;;;;;6.70;3.13;;;;;;;12.95;78.17;94197.06;5065175;28;20052;-69
2022/04/23 06:16:54;;;;;;;13.13;2.83;;;;;;;13.19;73.54;94195.47;5052188;28;20459;-69
2022/04/23 06:19:21;;;;;;;4.35;3.08;;;;;;;13.16;72.14;94164.66;5064639;28;20042;-68
2022/04/23 06:21:48;;;;;;;7.30;2.80;;;;;;;13.53;71.70;94194.94;5064583;28;20138;-68
2022/04/23 06:24:15;;;;;;;4.75;3.28;;;;;;;13.69;69.21;94198.31;5063454;28;20052;-68
2022/04/23 06:26:42;;;;;;;6.00;3.45;;;;;;;13.87;69.11;94186.50;5057367;28;20072;-69
2022/04/23 06:29:08;;;;;;;7.97;4.15;;;;;;;14.11;68.67;94198.97;5055460;28;20059;-69
2022/04/23 06:31:35;;;;;;;7.47;4.38;;;;;;;14.31;70.84;94191.06;5036523;28;20045;-69
2022/04/23 06:34:02;;;;;;;15.90;4.28;;;;;;;14.43;71.77;94195.19;5052908;28;20037;-69
2022/04/23 06:36:29;;;;;;;7.90;4.53;;;;;;;14.63;70.45;94202.94;5045814;28;20049;-68
2022/04/23 06:38:56;;;;;;;8.90;5.10;;;;;;;14.77;68.81;94199.75;5051958;28;20114;-68
2022/04/23 06:41:23;;;;;;;14.18;4.18;;;;;;;14.82;66.04;94208.34;5060299;28;20056;-68
2022/04/23 06:43:51;;;;;;;6.03;2.70;;;;;;;14.88;62.92;94201.22;5064529;28;20056;-68
2022/04/23 06:46:18;;;;;;;5.90;3.25;;;;;;;14.92;63.80;94207.50;5054021;28;20048;-68
2022/04/23 06:48:45;;;;;;;20.27;6.05;;;;;;;15.01;64.25;94205.84;5042886;28;20053;-68
2022/04/23 06:51:13;;;;;;;9.30;6.70;;;;;;;15.14;65.25;94208.91;5048802;28;20040;-68
2022/04/23 06:53:41;;;;;;;8.00;3.45;;;;;;;15.10;64.93;94209.44;5043169;28;20170;-68
2022/04/23 06:56:10;;;;;;;6.28;3.72;;;;;;;14.96;65.22;94208.50;5048794;28;20045;-68
2022/04/23 06:58:37;;;;;;;10.02;3.55;;;;;;;14.62;65.22;94208.47;5058807;28;20540;-68
2022/04/23 07:01:04;;;;;;;8.18;4.47;;;;;;;14.66;65.51;94199.78;5054286;28;20049;-68
2022/04/23 07:03:31;;;;;;;6.18;4.13;;;;;;;15.08;65.70;94211.56;5035205;28;20056;-68
2022/04/23 07:05:58;;;;;;;7.20;3.63;;;;;;;15.27;65.33;94213.53;5044580;28;20040;-68
2022/04/23 07:08:29;;;;;;;8.13;3.58;;;;;;;15.01;66.65;94216.34;5036892;28;20071;-68
2022/04/23 07:10:56;;;;;;;6.50;3.30;;;;;;;14.81;67.72;94213.84;5036419;28;20529;-68
2022/04/23 07:13:23;;;;;;;7.68;3.90;;;;;;;15.06;68.38;94218.94;5048329;28;20048;-68
2022/04/23 07:15:50;;;;;;;11.68;4.35;;;;;;;15.30;67.75;94218.22;5055585;28;20040;-68
2022/04/23 07:18:16;;;;;;;8.55;4.45;;;;;;;15.59;65.57;94220.06;5059777;28;20452;-69
2022/04/23 07:20:43;;;;;;;6.72;2.92;;;;;;;15.61;65.35;94220.56;5058873;28;20076;-69
2022/04/23 07:25:57;;;;;;;6.65;3.13;;;;;;;15.53;64.59;94227.22;5046246;28;20482;-67
2022/04/23 07:28:24;;;;;;;5.63;2.47;;;;;;;15.66;64.68;94237.09;5056101;28;20123;-67
2022/04/23 07:30:50;;;;;;;6.10;2.78;;;;;;;15.88;63.68;94232.44;5047966;28;20114;-68
2022/04/23 07:38:48;;;;;;;7.15;3.25;;;;;;;16.27;64.02;94249.88;5040551;28;20515;-67
2022/04/23 07:41:15;;;;;;;5.68;1.88;;;;;;;16.30;61.24;94249.31;5054710;28;20132;-67
2022/04/23 07:43:42;;;;;;;14.13;2.22;;;;;;;16.39;62.15;94252.91;5048946;28;20115;-67
2022/04/23 07:46:09;;;;;;;51.58;12.10;;;;;;;16.36;62.12;94245.56;5047163;28;20055;-67
2022/04/23 07:48:36;;;;;;;9.10;3.22;;;;;;;16.43;61.28;94249.41;5037589;28;20049;-67
2022/04/23 07:51:04;;;;;;;4.82;2.67;;;;;;;16.56;62.48;94240.03;5049101;28;20044;-67
2022/04/23 07:53:30;;;;;;;7.63;2.88;;;;;;;16.74;57.62;94248.25;5015391;28;20044;-68
2022/04/23 07:55:58;;;;;;;4.20;2.30;;;;;;;16.80;56.86;94252.38;5033419;28;20049;-68
2022/04/23 07:58:25;;;;;;;5.03;2.08;;;;;;;17.03;57.44;94260.50;5057815;28;20105;-68
2022/04/23 08:00:52;;;;;;;20.60;6.82;;;;;;;17.04;56.96;94256.81;5041384;28;20548;-68
2022/04/23 08:03:19;;;;;;;19.92;5.57;;;;;;;16.93;55.84;94256.19;5052288;28;20475;-68
2022/04/23 08:05:47;;;;;;;6.50;2.40;;;;;;;16.98;56.30;94254.25;5050723;28;20654;-68
2022/04/23 08:08:17;;;;;;;2.70;1.05;;;;;;;16.89;56.08;94245.44;5041023;28;20049;-68
2022/04/23 08:10:45;;;;;;;10.20;2.33;;;;;;;16.88;57.87;94248.34;5035933;28;20537;-68
2022/04/23 08:13:11;;;;;;;8.80;2.60;;;;;;;16.94;56.82;94248.00;5043507;28;20596;-68
2022/04/23 08:15:39;;;;;;;7.00;3.05;;;;;;;16.86;58.31;94251.28;5048953;28;20037;-68
2022/04/23 08:18:07;;;;;;;5.63;1.75;;;;;;;16.95;59.02;94260.09;5052693;28;20045;-68
2022/04/23 08:20:34;;;;;;;23.90;7.43;;;;;;;17.27;59.16;94250.69;5047100;28;20691;-68
2022/04/23 08:23:02;;;;;;;13.35;4.63;;;;;;;17.24;57.10;94256.50;5048859;28;20487;-68
2022/04/23 08:25:29;;;;;;;17.50;4.18;;;;;;;17.32;57.18;94253.25;5044647;28;20076;-68
2022/04/23 08:30:43;;;;;;;8.10;3.70;;;;;;;17.56;56.61;94241.81;5054630;28;20041;-68
2022/04/23 08:33:09;;;;;;;6.47;2.95;;;;;;;17.53;60.30;94258.94;5050804;28;20037;-68
2022/04/23 08:35:37;;;;;;;10.40;4.47;;;;;;;17.46;62.43;94248.00;5055168;28;20096;-68
2022/04/23 08:38:06;;;;;;;16.42;5.90;;;;;;;17.74;62.04;94263.91;5038699;28;20045;-69
2022/04/23 08:40:39;;;;;;;10.88;3.65;;;;;;;17.55;59.56;94251.53;5053709;28;20048;-69
2022/04/23 08:43:08;;;;;;;15.90;4.40;;;;;;;17.52;61.72;94256.59;5046789;28;20036;-69
2022/04/23 08:45:39;;;;;;;9.55;3.30;;;;;;;17.63;61.47;94257.22;5056842;28;20052;-69
2022/04/23 08:48:14;;;;;;;6.85;3.22;;;;;;;17.62;61.07;94253.81;5056105;28;20068;-68
2022/04/23 08:50:43;;;;;;;11.13;3.55;;;;;;;17.61;58.69;94281.22;5055954;28;20044;-69
2022/04/23 08:53:18;;;;;;;17.80;4.88;;;;;;;17.44;58.53;94259.91;5053215;28;20048;-68
2022/04/23 08:55:56;;;;;;;9.15;3.13;;;;;;;17.48;57.36;94255.63;5055572;28;20091;-69
2022/04/23 08:58:24;;;;;;;7.45;3.03;;;;;;;17.54;56.50;94257.13;5048748;28;20790;-69
2022/04/23 09:00:51;;;;;;;11.95;3.03;;;;;;;17.67;57.28;94248.47;5050682;28;20531;-69
2022/04/23 09:03:18;;;;;;;3.75;2.65;;;;;;;17.73;57.55;94263.09;5057048;28;20189;-69
2022/04/23 09:05:53;;;;;;;8.70;3.42;;;;;;;17.81;57.93;94261.66;5051828;28;20045;-69
2022/04/23 09:08:20;;;;;;;8.15;2.38;;;;;;;17.77;58.60;94261.47;5054948;28;20447;-68
2022/04/23 09:10:57;;;;;;;4.47;1.80;;;;;;;18.09;57.55;94262.50;5049444;28;20043;-70
2022/04/23 09:13:25;;;;;;;4.15;2.45;;;;;;;18.40;56.76;94264.59;5053856;28;20057;-70
2022/04/23 09:24:20;;;;;;;11.52;2.10;;;;;;;18.27;53.50;94254.81;5038747;28;20606;-69
2022/04/23 09:27:05;;;;;;;9.90;2.63;;;;;;;18.34;53.57;94255.19;5036501;28;20095;-69
2022/04/23 09:29:32;;;;;;;7.47;1.92;;;;;;;18.39;53.92;94257.72;5038334;28;20266;-69
2022/04/23 09:32:14;;;;;;;8.27;2.20;;;;;;;18.13;54.70;94254.78;5052326;28;20055;-69
2022/04/23 09:34:41;;;;;;;6.25;1.63;;;;;;;17.92;54.59;94249.13;5044968;28;20178;-69
2022/04/23 09:37:08;;;;;;;9.10;2.28;;;;;;;18.10;54.45;94256.16;5034347;28;20037;-69
2022/04/23 09:39:38;;;;;;;8.13;1.73;;;;;;;18.23;52.89;94259.09;5060725;28;20456;-69
2022/04/23 09:42:13;;;;;;;8.35;2.92;;;;;;;18.27;53.35;94266.13;5054540;28;20118;-69
2022/04/23 09:44:41;;;;;;;;;;;;;;;18.37;52.77;94259.13;5033000;28;20409;-69
2022/04/23 09:47:07;;;;;;;5.10;1.88;;;;;;;18.26;51.96;94258.53;5045183;28;19929;-69
2022/04/23 09:49:35;;;;;;;8.55;2.42;;;;;;;18.20;53.28;94249.13;5055186;28;20049;-70
2022/04/23 09:52:04;;;;;;;6.45;1.88;;;;;;;18.14;53.82;94259.78;5044215;28;20052;-69
2022/04/23 09:54:32;;;;;;;7.40;1.98;;;;;;;18.44;53.26;94260.28;5031051;28;20049;-69
2022/04/23 09:57:00;;;;;;;4.53;2.28;;;;;;;18.50;51.70;94269.63;5042469;28;20041;-69
2022/04/23 09:59:27;;;;;;;5.78;1.90;;;;;;;18.54;50.94;94270.59;5029031;28;20048;-69
2022/04/23 10:01:55;;;;;;;4.18;1.63;;;;;;;18.77;50.97;94260.13;5043469;28;20068;-70
2022/04/23 10:04:35;;;;;;;7.47;2.08;;;;;;;19.00;51.13;94261.00;5028707;28;20048;-70
2022/04/23 10:07:09;;;;;;;4.97;1.35;;;;;;;18.61;51.74;94258.88;5031786;28;20197;-71
2022/04/23 10:09:41;;;;;;;9.90;1.55;;;;;;;18.59;49.95;94256.53;5040211;28;20141;-71
2022/04/23 10:12:09;;;;;;;5.35;1.25;;;;;;;18.32;51.06;94258.13;5037378;28;20834;-71
2022/04/23 10:14:46;;;;;;;4.65;1.92;;;;;;;17.99;52.81;94260.06;5041258;28;20060;-72
2022/04/23 10:17:17;;;;;;;5.80;2.53;;;;;;;17.87;52.63;94246.59;5039356;28;20048;-71
2022/04/23 10:19:45;;;;;;;10.75;3.10;;;;;;;18.14;53.07;94251.09;5044735;28;20592;-71
2022/04/23 10:22:28;;;;;;;4.95;1.45;;;;;;;18.19;52.22;94247.59;5043208;28;20036;-71
2022/04/23 10:25:24;;;;;;;7.23;1.50;;;;;;;18.58;52.91;94256.84;5032000;28;20060;-70
2022/04/23 10:27:55;;;;;;;4.53;1.25;;;;;;;18.97;53.09;94250.25;5034984;28;20455;-71
2022/04/23 10:30:25;;;;;;;6.95;1.67;;;;;;;19.02;49.36;94242.22;5040313;28;20452;-71
2022/04/23 10:32:53;;;;;;;7.38;2.47;;;;;;;19.17;48.17;94238.47;5007283;28;20120;-71
2022/04/23 10:35:20;;;;;;;7.90;2.55;;;;;;;19.47;49.05;94252.81;5038999;28;20524;-71
2022/04/23 10:37:53;;;;;;;8.90;1.67;;;;;;;19.74;49.45;94248.50;5036267;28;20040;-71
2022/04/23 10:40:22;;;;;;;9.02;2.22;;;;;;;20.39;47.94;94245.19;5042052;28;20048;-71
2022/04/23 10:43:07;;;;;;;8.70;1.23;;;;;;;20.66;47.70;94254.00;5041393;28;20037;-71
2022/04/23 10:45:36;;;;;;;9.43;2.00;;;;;;;20.58;45.70;94244.13;5045924;28;20059;-71
2022/04/23 10:48:24;;;;;;;5.35;1.65;;;;;;;20.95;44.69;94250.00;5044602;28;20045;-72
2022/04/23 10:51:16;;;;;;;4.45;1.40;;;;;;;21.35;45.20;94252.50;5045830;28;20543;-71
2022/04/23 10:53:43;;;;;;;9.80;2.47;;;;;;;21.63;44.46;94249.53;5055646;28;20688;-70
2022/04/23 10:56:11;;;;;;;9.13;1.80;;;;;;;21.69;42.54;94248.28;5054001;28;20047;-71
2022/04/23 10:58:43;;;;;;;12.27;2.55;;;;;;;21.29;43.88;94261.69;5057176;28;20040;-71
2022/04/23 11:01:21;;;;;;;7.03;1.45;;;;;;;21.27;43.52;94258.59;5056241;28;20183;-71
2022/04/23 11:04:06;;;;;;;3.75;1.25;;;;;;;21.01;43.95;94259.34;5050951;28;20135;-71
2022/04/23 11:12:32;;;;;;;5.07;1.60;;;;;;;21.30;42.52;94255.28;5062625;28;20056;-71
2022/04/23 11:15:01;;;;;;;4.70;0.82;;;;;;;21.41;39.75;94253.91;5050286;28;20049;-71
2022/04/23 11:17:37;;;;;;;8.80;1.50;;;;;;;21.44;39.92;94255.91;5049458;28;20487;-70
2022/04/23 11:20:05;;;;;;;4.80;1.10;;;;;;;21.31;39.75;94262.16;5053574;28;20979;-70
2022/04/23 11:22:32;;;;;;;14.73;2.45;;;;;;;21.69;39.58;94250.91;5057860;28;20677;-70
2022/04/23 11:24:59;;;;;;;7.18;1.52;;;;;;;21.37;40.73;94250.31;5062794;28;20041;-70
2022/04/23 11:27:28;;;;;;;6.68;1.77;;;;;;;21.20;38.72;94246.56;5054247;28;20049;-70
2022/04/23 11:29:56;;;;;;;10.02;1.63;;;;;;;20.84;37.55;94254.81;5053893;28;20048;-70
2022/04/23 11:32:30;;;;;;;4.57;1.13;;;;;;;21.16;37.56;94250.16;5039348;28;20053;-70
2022/04/23 11:35:03;;;;;;;2.38;0.88;;;;;;;21.02;37.79;94258.25;5041797;28;20054;-70
2022/04/23 11:37:32;;;;;;;2.70;0.52;;;;;;;21.23;38.73;94249.69;5026959;28;20053;-70
2022/04/23 11:40:08;;;;;;;1.77;0.63;;;;;;;21.24;39.76;94245.97;5029740;28;20049;-70
2022/04/23 11:42:45;;;;;;;2.78;0.63;;;;;;;21.42;36.57;94263.38;5027637;28;20037;-70
2022/04/23 11:45:14;;;;;;;4.45;0.98;;;;;;;21.15;38.80;94254.66;5010318;28;20049;-70
2022/04/23 11:47:41;;;;;;;7.22;2.05;;;;;;;21.47;37.54;94250.03;5023609;28;20120;-70
2022/04/23 11:50:15;;;;;;;5.97;1.92;;;;;;;21.45;38.40;94244.25;5027664;28;20046;-70
2022/04/23 11:52:45;;;;;;;5.75;1.55;;;;;;;21.35;38.98;94241.91;5011332;28;20042;-70
2022/04/23 11:55:23;;;;;;;3.85;1.67;;;;;;;21.64;39.87;94248.44;5020223;28;20049;-70
2022/04/23 11:57:59;;;;;;;8.13;1.48;;;;;;;21.62;39.42;94245.31;5022443;28;20052;-70
2022/04/23 12:00:27;;;;;;;3.00;1.00;;;;;;;21.64;38.39;94233.31;5015918;28;20735;-70
2022/04/23 12:02:54;;;;;;;6.20;1.50;;;;;;;21.67;39.16;94237.22;5039178;28;20429;-70
2022/04/23 12:05:29;;;;;;;3.03;1.10;;;;;;;21.80;39.11;94236.22;5039599;28;20037;-70
2022/04/23 12:07:57;;;;;;;3.30;1.13;;;;;;;21.77;38.08;94244.84;5023143;28;20053;-71
2022/04/23 12:10:31;;;;;;;3.38;0.90;;;;;;;21.69;39.16;94235.03;5035875;28;20045;-71